• Join FlightAware (Why Join?)
  • Login
  • US Flag 
12:35AM EDT


 

Airport Tracker/Info


-or-


 

Live Flight TrackerFlight Track Log ✈ ASQ6029 ✈ 17-Jun-2013 ✈ KAMA - KDEN

Flight Track Log - Related Links

Times and Time Zones

All times are in EDT time to prevent confusion due to time zone crossing. See the ASQ6029 flight status page for this flight to view local times or setup timezone preferences in your user account.

Time Position Orientation Groundspeed Altitude Reporting Facility
EDT Latitude Longitude Course Direction KTS MPH feet Rate Location/Type
01:47PM 35.5749 -101.8490 336° Northwest  Level FlightAware Approximate
01:47PM 35.3994 -101.7375 338° Northwest 261 300 10,200  Level Albuquerque Center
01:48PM 35.6638 -101.8984 336° Northwest  Level FlightAware Approximate
01:48PM 35.4950 -101.7836 339° North 300 345 11,800  Level Albuquerque Center
01:49PM 35.7579 -101.9304 345° North  Level FlightAware Approximate
01:49PM 35.5847 -101.8261 339° North 334 384 13,500  Level Albuquerque Center
01:50PM 35.8487 -101.9743 338° Northwest  Level FlightAware Approximate
01:50PM 35.6756 -101.8700 339° North 347 399 15,200  Level Albuquerque Center
01:51PM 35.9361 -102.0255 340° North  Level FlightAware Approximate
01:51PM 35.7683 -101.9133 339° North 355 409 16,900  Level Albuquerque Center
01:52PM 35.8622 -101.9592 338° Northwest 360 414 18,300 1,440 Climbing Albuquerque Center
01:53PM 35.9569 -102.0061 338° Northwest 365 420 19,900 1,740 Climbing Albuquerque Center
01:54PM 36.0739 -102.0622 339° North 373 429 21,900 1,920 Climbing Albuquerque Center
01:55PM 36.1683 -102.1089 338° Northwest 368 423 23,900 1,860 Climbing Albuquerque Center
01:56PM 36.2600 -102.1542 338° Northwest 359 413 25,800 1,620 Climbing Albuquerque Center
01:57PM 36.3522 -102.1983 339° North 355 409 27,300 1,440 Climbing Albuquerque Center
01:58PM 36.4458 -102.2444 338° Northwest 360 414 28,800 1,260 Climbing Albuquerque Center
01:59PM 36.5417 -102.2922 338° Northwest 368 423 29,900 540 Climbing Albuquerque Center
02:00PM 36.6422 -102.3408 339° North 382 440 30,000  Climbing Albuquerque Center
02:01PM 36.7750 -102.4067 338° Northwest 424 488 30,000  Level Albuquerque Center
02:02PM 36.8847 -102.4619 338° Northwest 430 495 30,000  Level Albuquerque Center
02:03PM 37.0044 -102.5208 339° North 432 497 30,000  Level Albuquerque Center
02:04PM 37.1086 -102.5739 338° Northwest 426 490 30,000  Level Albuquerque Center
02:05PM 37.2317 -102.6353 338° Northwest 426 490 30,000  Level Albuquerque Center
02:06PM 37.3372 -102.6883 338° Northwest 427 491 30,000  Level Albuquerque Center
02:07PM 37.4600 -102.7503 338° Northwest 427 491 30,000  Level Albuquerque Center
02:07PM 37.4767 -102.7583 339° North 426 490 30,000  Level Denver Center
02:09PM 37.6033 -102.8058 343° North 426 490 30,000  Level Denver Center
02:10PM 37.7158 -102.8422 346° North 434 499 30,000  Level Denver Center
02:11PM 37.8428 -102.8928 343° North 433 498 30,000  Level Denver Center
02:12PM 37.9375 -102.9686 328° Northwest 418 481 30,000  Level Denver Center
02:13PM 38.0386 -103.0564 326° Northwest 421 484 30,000  Level Denver Center
02:14PM 38.1375 -103.1394 327° Northwest 416 479 30,000  Level Denver Center
02:15PM 38.2442 -103.2328 326° Northwest 417 480 30,000  Level Denver Center
02:16PM 38.3456 -103.3197 326° Northwest 416 479 30,000  Level Denver Center
02:17PM 38.4369 -103.3989 326° Northwest 414 476 30,000  Level Denver Center
02:18PM 38.5331 -103.4825 326° Northwest 414 476 30,000  Level Denver Center
02:19PM 38.6386 -103.5747 326° Northwest 414 476 30,000  Level Denver Center
02:20PM 38.7294 -103.6544 326° Northwest 414 476 30,000 -660 Level Denver Center
02:21PM 38.8342 -103.7469 325° Northwest 410 472 28,700 -1,560 Descending Denver Center
02:22PM 38.9361 -103.8183 331° Northwest 433 498 26,800 -1,740 Descending Denver Center
02:23PM 39.0550 -103.8492 349° North 437 503 25,200 -1,800 Descending Denver Center
02:24PM 39.1644 -103.8786 348° North 409 471 23,100 -2,280 Descending Denver Center
02:25PM 39.2869 -103.9103 349° North 375 432 20,600 -2,040 Descending Denver Center
02:26PM 39.3578 -103.9711 326° Northwest 340 391 18,900 -1,620 Descending Denver Center
02:27PM 39.4008 -104.0803 297° West 324 373 17,300 -1,680 Descending Denver Center
02:28PM 39.4400 -104.1739 298° West 286 329 15,500 -1,800 Descending Denver Center
02:29PM 39.4828 -104.2756 299° West 297 342 13,600 -1,800 Descending Denver Center
02:31PM 39.5500 -104.4333 299° West 307 353 10,700 -1,800 Descending Denver TRACON
02:31PM 39.5653 -104.4761 295° West 304 350 10,000 -1,680 Descending Denver Center
02:32PM 39.6228 -104.5514 315° West 303 349 8,300 -1,260 Descending Denver Center
02:33PM 39.6872 -104.6078 326° Northwest 263 303 7,400 -900 Descending Denver Center